Time;durP1;ratioP1;P1;durP2;ratioP2;P2;SDS_P1;SDS_P2;PMS_P1;PMS_P2;Temp;Humidity;BMP_temperature;BMP_pressure;BME280_temperature;BME280_humidity;BME280_pressure;Samples;Min_cycle;Max_cycle;Signal;HPM_P1;HPM_P2
2021/09/15 05:52:52;;;;;;;8.10;7.13;;;;;;;;;;10529012;22;20498;-87
2021/09/15 05:57:54;;;;;;;7.50;6.85;;;;;;;;;;10369566;28;20104;-88
2021/09/15 06:02:56;;;;;;;8.05;7.25;;;;;;;;;;10359410;28;20027;-89
2021/09/15 06:08:00;;;;;;;7.80;7.07;;;;;;;;;;10337595;28;20031;-87
2021/09/15 06:13:01;;;;;;;7.20;6.45;;;;;;;;;;10343087;28;20043;-87
2021/09/15 06:18:02;;;;;;;8.85;7.65;;;;;;;;;;10338331;28;20078;-87
2021/09/15 06:23:06;;;;;;;7.97;7.25;;;;;;;;;;10345868;28;20093;-87
2021/09/15 06:28:08;;;;;;;8.32;7.53;;;;;;;;;;10343988;28;20098;-87
2021/09/15 06:33:09;;;;;;;10.40;8.13;;;;;;;;;;10348447;28;20031;-88
2021/09/15 06:38:13;;;;;;;9.88;8.88;;;;;;;;;;10340688;28;20034;-87
2021/09/15 06:43:14;;;;;;;10.90;9.80;;;;;;;;;;10340140;28;20113;-90
2021/09/15 06:48:15;;;;;;;10.80;9.20;;;;;;;;;;10329087;28;20156;-90
2021/09/15 06:53:16;;;;;;;12.07;10.38;;;;;;;;;;10327899;28;20046;-90
2021/09/15 06:58:17;;;;;;;13.35;10.95;;;;;;;;;;10325638;28;20039;-90
2021/09/15 07:03:18;;;;;;;9.38;8.50;;;;;;;;;;10304050;28;20121;-86
2021/09/15 07:08:18;;;;;;;7.32;6.57;;;;;;;;;;10304166;28;20035;-85
2021/09/15 07:13:19;;;;;;;7.13;6.43;;;;;;;;;;10300816;28;20037;-87
2021/09/15 07:19:02;;;;;;;7.75;6.57;;;;;;;;;;10302203;28;20062;-86
2021/09/15 07:24:27;;;;;;;7.40;6.60;;;;;;;;;;10302144;28;20540;-89
2021/09/15 07:29:30;;;;;;;8.70;7.03;;;;;;;;;;10301542;28;20041;-88
2021/09/15 07:40:11;;;;;;;;;;;;;;;;;;;;;
2021/09/15 07:45:15;;;;;;;8.02;7.20;;;;;;;;;;10305558;28;20042;-88
2021/09/15 07:50:55;;;;;;;;;;;;;;;;;;;;;
2021/09/15 07:56:19;;;;;;;10.10;9.13;;;;;;;;;;10307029;28;20046;-87
2021/09/15 08:01:54;;;;;;;11.40;9.38;;;;;;;;;;10311432;28;20039;-86
2021/09/15 08:07:06;;;;;;;11.45;9.50;;;;;;;;;;10305786;28;20039;-87
2021/09/15 08:12:11;;;;;;;9.98;8.75;;;;;;;;;;10286826;28;20035;-86
2021/09/15 08:17:35;;;;;;;9.52;8.52;;;;;;;;;;10302929;28;20023;-89
2021/09/15 09:38:34;;;;;;;11.77;8.63;;;;;;;;;;11219657;22;20533;-87
2021/09/15 09:43:36;;;;;;;15.02;10.07;;;;;;;;;;10408252;28;20121;-87
2021/09/15 09:48:38;;;;;;;10.60;8.98;;;;;;;;;;10406002;28;20037;-85
2021/09/15 09:53:39;;;;;;;12.13;8.60;;;;;;;;;;10421118;28;20033;-85
2021/09/15 09:58:43;;;;;;;13.07;10.18;;;;;;;;;;10426288;28;20068;-84
2021/09/15 10:03:45;;;;;;;9.63;8.27;;;;;;;;;;10436826;28;20109;-84
2021/09/15 10:08:47;;;;;;;10.90;8.30;;;;;;;;;;10428415;28;20049;-86
2021/09/15 10:13:48;;;;;;;10.30;8.30;;;;;;;;;;10428776;28;20041;-83
2021/09/15 10:19:03;;;;;;;9.98;8.35;;;;;;;;;;10446463;28;20044;-83
2021/09/15 10:24:05;;;;;;;10.45;8.40;;;;;;;;;;10417889;28;20037;-82
2021/09/15 10:29:18;;;;;;;9.82;8.27;;;;;;;;;;10437662;28;20125;-84
2021/09/15 10:34:38;;;;;;;9.13;7.93;;;;;;;;;;10454659;28;20067;-87
2021/09/15 10:39:57;;;;;;;10.18;8.77;;;;;;;;;;10437078;28;20033;-84
2021/09/15 10:45:11;;;;;;;10.80;8.07;;;;;;;;;;10458855;28;20038;-84
2021/09/15 10:50:37;;;;;;;9.57;7.75;;;;;;;;;;10433456;28;20491;-83
2021/09/15 10:55:38;;;;;;;9.55;7.15;;;;;;;;;;10433813;28;20057;-82
2021/09/15 11:00:53;;;;;;;6.25;5.35;;;;;;;;;;10430124;28;20436;-82
2021/09/15 11:05:54;;;;;;;5.47;4.97;;;;;;;;;;10451899;28;20041;-83
2021/09/15 11:11:27;;;;;;;5.15;4.25;;;;;;;;;;10443768;28;20141;-83
2021/09/15 11:16:36;;;;;;;4.53;3.90;;;;;;;;;;10445911;28;20025;-85
2021/09/15 11:21:41;;;;;;;11.35;4.95;;;;;;;;;;10410114;28;20325;-84
2021/09/15 11:26:44;;;;;;;5.50;5.00;;;;;;;;;;10412246;28;20487;-86
2021/09/15 11:31:45;;;;;;;5.78;4.85;;;;;;;;;;10424098;28;20057;-85
2021/09/15 11:36:50;;;;;;;6.07;4.68;;;;;;;;;;10428978;28;20506;-86
2021/09/15 11:41:51;;;;;;;4.85;4.28;;;;;;;;;;10414599;28;20060;-86
2021/09/15 11:46:52;;;;;;;4.57;3.97;;;;;;;;;;10416534;28;20042;-85
2021/09/15 11:51:58;;;;;;;5.38;3.90;;;;;;;;;;10416037;28;20522;-86
2021/09/15 12:02:40;;;;;;;5.28;3.42;;;;;;;;;;10461558;28;20033;-87
2021/09/15 12:07:41;;;;;;;4.90;3.88;;;;;;;;;;10449594;28;20048;-85
2021/09/15 12:12:44;;;;;;;7.10;5.63;;;;;;;;;;10438356;28;20048;-86
2021/09/15 12:17:57;;;;;;;5.78;5.22;;;;;;;;;;10434814;28;20052;-85
2021/09/15 12:22:58;;;;;;;6.63;5.22;;;;;;;;;;10435968;28;20041;-85
2021/09/15 12:28:00;;;;;;;7.82;5.97;;;;;;;;;;10442179;28;20037;-85
2021/09/15 12:33:01;;;;;;;7.07;5.72;;;;;;;;;;10438332;28;20041;-85
2021/09/15 12:38:03;;;;;;;9.25;6.20;;;;;;;;;;10439442;28;20060;-85
2021/09/15 12:43:05;;;;;;;8.13;5.28;;;;;;;;;;10443089;28;20041;-85
2021/09/15 12:48:16;;;;;;;7.03;5.40;;;;;;;;;;10460035;28;20042;-86
2021/09/15 12:53:17;;;;;;;6.80;5.72;;;;;;;;;;10443701;28;20041;-85
2021/09/15 12:58:28;;;;;;;6.03;5.28;;;;;;;;;;10442588;28;20030;-86
2021/09/15 13:03:39;;;;;;;6.03;4.90;;;;;;;;;;10443944;28;20044;-85
2021/09/15 13:08:48;;;;;;;7.40;6.53;;;;;;;;;;10451438;28;20121;-86
2021/09/15 13:13:50;;;;;;;7.03;6.00;;;;;;;;;;10432905;28;20038;-86
2021/09/15 13:18:51;;;;;;;9.38;8.20;;;;;;;;;;10434893;28;20047;-85
2021/09/15 13:23:52;;;;;;;8.90;7.35;;;;;;;;;;10433668;28;20036;-85
2021/09/15 13:28:53;;;;;;;7.05;5.65;;;;;;;;;;10435962;28;20033;-85
2021/09/15 13:33:54;;;;;;;8.48;6.60;;;;;;;;;;10438490;28;20104;-85
2021/09/15 13:38:55;;;;;;;9.30;8.35;;;;;;;;;;10442121;28;20067;-85
2021/09/15 13:43:56;;;;;;;7.97;7.18;;;;;;;;;;10425800;28;20033;-84
2021/09/15 13:48:57;;;;;;;8.55;7.72;;;;;;;;;;10419997;28;20048;-86
2021/09/15 13:53:59;;;;;;;6.32;5.72;;;;;;;;;;10434603;28;20034;-86
2021/09/15 13:59:00;;;;;;;9.70;8.80;;;;;;;;;;10409276;28;20407;-85
2021/09/15 14:04:01;;;;;;;9.30;8.43;;;;;;;;;;10414731;28;20136;-86
2021/09/15 14:09:02;;;;;;;12.15;10.98;;;;;;;;;;10415641;28;20044;-85
2021/09/15 14:14:04;;;;;;;8.13;7.32;;;;;;;;;;10422895;28;20060;-86
2021/09/15 14:19:05;;;;;;;9.60;8.52;;;;;;;;;;10422375;28;20029;-86
2021/09/15 14:24:07;;;;;;;7.80;6.90;;;;;;;;;;10424775;28;20087;-87
2021/09/15 14:29:08;;;;;;;7.75;6.90;;;;;;;;;;10426384;28;20033;-87
2021/09/15 14:34:09;;;;;;;6.68;6.03;;;;;;;;;;10439864;28;20104;-85
2021/09/15 14:39:10;;;;;;;9.00;6.57;;;;;;;;;;10427592;28;20068;-85
2021/09/15 14:44:11;;;;;;;10.55;9.45;;;;;;;;;;10423328;28;20036;-87
2021/09/15 14:49:13;;;;;;;8.60;7.80;;;;;;;;;;10418921;28;20079;-86
2021/09/15 14:54:14;;;;;;;12.50;11.30;;;;;;;;;;10420459;28;20034;-83
2021/09/15 14:59:15;;;;;;;13.77;12.43;;;;;;;;;;10419184;28;20038;-87
2021/09/15 15:04:16;;;;;;;15.95;14.45;;;;;;;;;;10418837;28;20033;-85
2021/09/15 15:09:17;;;;;;;19.95;17.98;;;;;;;;;;10419399;28;20177;-84
2021/09/15 15:14:18;;;;;;;15.98;14.38;;;;;;;;;;10417815;28;20274;-85
2021/09/15 15:19:22;;;;;;;18.25;16.10;;;;;;;;;;10426763;28;20072;-86
2021/09/15 15:24:24;;;;;;;17.60;15.90;;;;;;;;;;10418629;28;20033;-86
2021/09/15 15:29:26;;;;;;;16.73;15.05;;;;;;;;;;10424923;28;20018;-84
2021/09/15 15:34:26;;;;;;;17.40;15.70;;;;;;;;;;10451024;28;20033;-86
2021/09/15 15:39:28;;;;;;;15.02;13.07;;;;;;;;;;10440583;28;20037;-85
2021/09/15 15:44:29;;;;;;;17.02;15.32;;;;;;;;;;10446327;28;20043;-84
2021/09/15 15:49:30;;;;;;;15.07;13.55;;;;;;;;;;10442514;28;20049;-85
2021/09/15 15:54:31;;;;;;;11.18;10.07;;;;;;;;;;10459211;28;20037;-85
2021/09/15 15:59:32;;;;;;;11.75;10.35;;;;;;;;;;10441129;28;20076;-84
2021/09/15 16:04:33;;;;;;;11.05;8.95;;;;;;;;;;10445386;28;20479;-86
2021/09/15 16:09:35;;;;;;;8.82;7.93;;;;;;;;;;10442050;28;20067;-86
2021/09/15 16:14:36;;;;;;;6.80;6.10;;;;;;;;;;10426404;28;20057;-85
2021/09/15 17:55:57;;;;;;;3.47;2.80;;;;;;;;;;10431925;22;20076;-89
2021/09/15 18:01:04;;;;;;;3.97;3.10;;;;;;;;;;10418187;28;20038;-88
2021/09/15 18:06:06;;;;;;;4.05;2.63;;;;;;;;;;10417652;28;20049;-88
2021/09/15 18:11:16;;;;;;;5.18;3.10;;;;;;;;;;10400133;28;20091;-88
2021/09/15 18:16:22;;;;;;;;;;;;;;;;;;10406157;28;20033;-89
2021/09/15 18:21:23;;;;;;;3.67;2.75;;;;;;;;;;10418062;28;19912;-86
2021/09/15 18:26:26;;;;;;;3.85;2.70;;;;;;;;;;10411756;28;20034;-86
2021/09/15 18:31:28;;;;;;;3.92;3.00;;;;;;;;;;10409962;28;20047;-86
2021/09/15 18:36:29;;;;;;;5.05;3.35;;;;;;;;;;10424896;28;20029;-86
2021/09/15 18:41:30;;;;;;;4.53;3.50;;;;;;;;;;10433693;28;20042;-86
2021/09/15 18:46:32;;;;;;;8.00;4.22;;;;;;;;;;10415205;28;20037;-86
2021/09/15 18:51:33;;;;;;;6.75;4.82;;;;;;;;;;10414703;28;20056;-86
2021/09/15 18:56:36;;;;;;;7.40;5.28;;;;;;;;;;10425081;28;20044;-84
2021/09/15 19:01:37;;;;;;;5.65;5.05;;;;;;;;;;10435477;28;20495;-84
2021/09/15 19:06:38;;;;;;;8.80;6.57;;;;;;;;;;10435204;28;20041;-85
2021/09/15 19:11:39;;;;;;;10.43;7.50;;;;;;;;;;10423988;28;20042;-87
2021/09/15 19:16:40;;;;;;;7.78;6.32;;;;;;;;;;10428760;28;20116;-87
2021/09/15 19:21:45;;;;;;;10.00;8.52;;;;;;;;;;10407411;28;20116;-87
2021/09/15 19:26:47;;;;;;;11.27;7.78;;;;;;;;;;10407329;28;20044;-87
2021/09/15 19:31:53;;;;;;;8.63;5.40;;;;;;;;;;10408937;28;20056;-87
2021/09/15 19:36:55;;;;;;;10.10;7.38;;;;;;;;;;10425302;28;20061;-87
2021/09/15 19:41:57;;;;;;;11.70;6.40;;;;;;;;;;10405442;28;20038;-87
2021/09/15 19:47:01;;;;;;;7.22;5.47;;;;;;;;;;10406974;28;20038;-87
2021/09/15 19:52:03;;;;;;;7.30;4.75;;;;;;;;;;10404488;28;20582;-87
2021/09/15 19:57:04;;;;;;;5.13;3.58;;;;;;;;;;10406276;28;20041;-87
2021/09/15 20:02:27;;;;;;;3.80;2.72;;;;;;;;;;10424206;28;20491;-87
2021/09/15 20:07:28;;;;;;;5.40;2.63;;;;;;;;;;10405797;28;20040;-87
2021/09/15 20:12:29;;;;;;;4.18;2.20;;;;;;;;;;10405610;28;20129;-87
